Time;durP1;ratioP1;P1;durP2;ratioP2;P2;SDS_P1;SDS_P2;PMS_P1;PMS_P2;Temp;Humidity;BMP_temperature;BMP_pressure;BME280_temperature;BME280_humidity;BME280_pressure;Samples;Min_cycle;Max_cycle;Signal;HPM_P1;HPM_P2
2022/10/26 00:00:29;;;;;;;16.20;6.72;;;10.60;99.90;;;;;;5050693;28;20045;-81
2022/10/26 00:02:55;;;;;;;16.38;7.25;;;11.20;99.90;;;;;;5069107;28;20502;-81
2022/10/26 00:05:22;;;;;;;11.80;7.40;;;10.80;99.90;;;;;;5070672;28;20046;-81
2022/10/26 00:07:48;;;;;;;18.90;8.07;;;10.70;99.90;;;;;;5070758;28;20051;-79
2022/10/26 00:10:14;;;;;;;13.68;8.02;;;10.60;99.90;;;;;;5071888;28;20102;-81
2022/10/26 00:12:39;;;;;;;18.70;8.40;;;10.60;99.90;;;;;;5068487;28;20044;-81
2022/10/26 00:15:06;;;;;;;12.57;6.95;;;11.10;99.90;;;;;;5070146;28;20094;-82
2022/10/26 00:17:32;;;;;;;16.25;7.65;;;10.60;99.90;;;;;;5070362;28;20109;-81
2022/10/26 00:19:59;;;;;;;14.05;8.15;;;11.00;99.90;;;;;;5071675;28;20491;-81
2022/10/26 00:22:25;;;;;;;15.77;7.63;;;10.60;99.90;;;;;;5069727;28;20040;-81
2022/10/26 00:24:51;;;;;;;13.55;7.75;;;11.20;99.90;;;;;;5054439;28;20045;-81
2022/10/26 00:27:17;;;;;;;13.35;8.05;;;10.60;99.90;;;;;;5049948;28;20068;-80
2022/10/26 00:29:43;;;;;;;12.63;7.35;;;10.60;99.90;;;;;;5051205;28;20056;-81
2022/10/26 00:32:08;;;;;;;16.02;8.32;;;10.90;99.90;;;;;;5049806;28;20037;-81
2022/10/26 00:34:34;;;;;;;12.60;7.95;;;10.80;99.90;;;;;;5050912;28;20045;-80
2022/10/26 00:37:00;;;;;;;22.38;7.60;;;10.50;99.90;;;;;;5050194;28;20045;-81
2022/10/26 00:39:25;;;;;;;15.75;7.88;;;10.70;99.90;;;;;;5051203;28;20051;-81
2022/10/26 00:41:51;;;;;;;14.10;8.15;;;10.50;99.90;;;;;;5049719;28;20057;-80
2022/10/26 00:44:48;;;;;;;21.58;7.68;;;10.90;99.90;;;;;;5051246;28;20443;-81
2022/10/26 00:47:28;;;;;;;17.08;7.95;;;10.50;99.90;;;;;;5051263;28;20390;-80
2022/10/26 00:49:56;;;;;;;15.25;8.13;;;10.40;99.90;;;;;;5049529;28;20084;-81
2022/10/26 00:52:23;;;;;;;18.73;8.73;;;10.60;99.90;;;;;;5050885;28;20057;-81
2022/10/26 00:54:50;;;;;;;13.10;8.05;;;10.40;99.90;;;;;;5050380;28;20053;-81
2022/10/26 00:57:17;;;;;;;16.70;8.20;;;10.40;99.90;;;;;;5050979;28;20056;-82
2022/10/26 00:59:44;;;;;;;14.00;8.65;;;10.40;99.90;;;;;;5051113;28;20074;-82
2022/10/26 01:02:10;;;;;;;13.98;8.27;;;10.50;99.90;;;;;;5050555;28;20479;-81
2022/10/26 01:04:36;;;;;;;12.52;8.27;;;10.40;99.90;;;;;;5051690;28;20541;-81
2022/10/26 01:07:04;;;;;;;16.67;8.43;;;10.40;99.90;;;;;;5049806;28;20088;-81
2022/10/26 01:09:31;;;;;;;12.40;8.63;;;10.40;99.90;;;;;;5050510;28;20049;-81
2022/10/26 01:11:57;;;;;;;16.77;9.13;;;10.30;99.90;;;;;;5050571;28;20036;-80
2022/10/26 01:14:26;;;;;;;15.07;8.85;;;10.40;99.90;;;;;;5050925;28;20056;-81
2022/10/26 01:17:15;;;;;;;19.42;8.90;;;10.30;99.90;;;;;;5051387;28;20056;-81
2022/10/26 01:19:46;;;;;;;15.95;8.73;;;10.30;99.90;;;;;;5050770;28;20049;-81
2022/10/26 01:22:24;;;;;;;19.02;9.07;;;10.30;99.90;;;;;;5050251;28;20499;-81
2022/10/26 01:25:08;;;;;;;12.40;9.10;;;10.30;99.90;;;;;;5050478;28;20092;-81
2022/10/26 01:27:43;;;;;;;18.63;8.63;;;10.20;99.90;;;;;;5051416;28;20068;-81
2022/10/26 01:30:30;;;;;;;17.38;8.63;;;10.40;99.90;;;;;;5050204;28;20053;-82
2022/10/26 01:33:12;;;;;;;17.08;9.10;;;10.20;99.90;;;;;;5050190;28;20398;-81
2022/10/26 01:35:52;;;;;;;14.90;9.50;;;10.20;99.90;;;;;;5048836;28;20154;-81
2022/10/26 01:38:55;;;;;;;14.73;8.57;;;10.20;99.90;;;;;;5051118;28;20063;-81
2022/10/26 01:41:35;;;;;;;13.13;9.45;;;10.10;99.90;;;;;;5050097;28;20060;-81
2022/10/26 01:44:09;;;;;;;16.77;8.70;;;10.10;99.90;;;;;;5048943;28;20061;-81
2022/10/26 01:46:38;;;;;;;14.85;9.73;;;10.10;99.90;;;;;;5049956;28;20050;-81
2022/10/26 01:49:09;;;;;;;20.13;9.45;;;10.00;99.90;;;;;;5049739;28;20063;-82
2022/10/26 01:51:36;;;;;;;18.33;9.63;;;10.00;99.90;;;;;;5048215;28;20051;-80
2022/10/26 01:54:01;;;;;;;17.48;9.15;;;10.00;99.90;;;;;;5049968;28;20056;-81
2022/10/26 01:56:30;;;;;;;15.45;9.15;;;10.40;99.90;;;;;;5048871;28;20563;-81
2022/10/26 01:59:14;;;;;;;20.00;8.80;;;9.90;99.90;;;;;;5055944;28;20076;-80
2022/10/26 02:01:52;;;;;;;22.77;10.50;;;9.80;99.90;;;;;;5047921;28;20045;-81
2022/10/26 02:04:42;;;;;;;18.63;10.43;;;9.90;99.90;;;;;;5049644;28;20063;-80
2022/10/26 02:07:25;;;;;;;20.98;10.88;;;9.80;99.90;;;;;;5049894;28;20067;-80
2022/10/26 02:10:08;;;;;;;17.65;10.23;;;9.80;99.90;;;;;;5065370;28;20407;-80
2022/10/26 02:12:59;;;;;;;16.10;9.20;;;9.80;99.90;;;;;;5060495;28;20450;-81
2022/10/26 02:15:45;;;;;;;18.17;10.02;;;9.80;99.90;;;;;;5063056;28;20040;-80
2022/10/26 02:18:26;;;;;;;18.80;9.90;;;9.80;99.90;;;;;;5049538;28;20040;-81
2022/10/26 02:20:56;;;;;;;19.52;9.93;;;9.80;99.90;;;;;;5049507;28;20118;-80
2022/10/26 02:23:25;;;;;;;19.52;9.70;;;9.80;99.90;;;;;;5048983;28;20085;-80
2022/10/26 02:25:55;;;;;;;15.75;9.35;;;9.80;99.90;;;;;;5061994;28;20448;-80
2022/10/26 02:28:31;;;;;;;15.88;9.25;;;9.80;99.90;;;;;;5071397;28;20091;-79
2022/10/26 02:30:59;;;;;;;16.05;10.13;;;9.70;99.90;;;;;;5072517;28;20044;-80
2022/10/26 02:33:30;;;;;;;19.33;10.35;;;9.80;99.90;;;;;;5057177;28;20519;-80
2022/10/26 02:36:00;;;;;;;17.05;9.88;;;9.70;99.90;;;;;;5053747;28;20396;-80
2022/10/26 02:38:28;;;;;;;16.17;9.75;;;9.70;99.90;;;;;;5051920;28;20128;-80
2022/10/26 02:40:55;;;;;;;17.33;9.52;;;9.70;99.90;;;;;;5053599;28;20097;-79
2022/10/26 02:43:24;;;;;;;16.80;8.93;;;9.70;99.90;;;;;;5043341;28;20431;-78
2022/10/26 02:45:58;;;;;;;19.42;9.25;;;9.70;99.90;;;;;;5035137;28;20053;-80
2022/10/26 02:48:24;;;;;;;17.80;9.68;;;9.70;99.90;;;;;;5051613;28;20059;-80
2022/10/26 02:51:02;;;;;;;15.18;9.63;;;9.70;99.90;;;;;;5052146;28;20403;-80
2022/10/26 02:53:39;;;;;;;13.27;9.77;;;9.90;99.90;;;;;;5051440;28;20507;-80
2022/10/26 02:56:16;;;;;;;13.88;9.65;;;9.60;99.90;;;;;;5053428;28;20047;-80
2022/10/26 02:58:48;;;;;;;16.77;9.27;;;9.70;99.90;;;;;;5053054;28;20049;-80
2022/10/26 03:01:14;;;;;;;16.70;8.48;;;9.60;99.90;;;;;;5051534;28;20056;-81
2022/10/26 03:03:40;;;;;;;14.55;9.35;;;9.60;99.90;;;;;;5054020;28;20044;-79
2022/10/26 03:06:05;;;;;;;16.52;9.32;;;9.80;99.90;;;;;;5053077;28;20045;-81
2022/10/26 03:08:31;;;;;;;15.60;9.05;;;9.60;99.90;;;;;;5051879;28;20056;-80
2022/10/26 03:10:57;;;;;;;15.30;9.07;;;9.60;99.90;;;;;;5065025;28;20048;-81
2022/10/26 03:13:22;;;;;;;12.95;8.88;;;9.60;99.90;;;;;;5065441;28;20122;-80
2022/10/26 03:15:48;;;;;;;20.65;9.93;;;9.80;99.90;;;;;;5053921;28;20400;-80
2022/10/26 03:18:14;;;;;;;17.20;9.18;;;9.60;99.90;;;;;;5052707;28;20373;-80
2022/10/26 03:20:42;;;;;;;17.00;10.70;;;9.60;99.90;;;;;;5051283;28;20053;-80
2022/10/26 03:23:08;;;;;;;20.25;9.57;;;9.60;99.90;;;;;;5052767;28;20183;-80
2022/10/26 03:25:33;;;;;;;21.50;10.18;;;10.20;99.90;;;;;;5053774;28;20128;-80
2022/10/26 03:28:03;;;;;;;15.95;9.40;;;9.60;99.90;;;;;;5051266;28;20044;-80
2022/10/26 03:30:30;;;;;;;22.83;10.15;;;9.60;99.90;;;;;;5052549;28;20048;-81
2022/10/26 03:32:56;;;;;;;19.40;10.73;;;9.60;99.90;;;;;;5056519;28;20045;-80
2022/10/26 03:35:22;;;;;;;18.23;11.02;;;9.50;99.90;;;;;;5071289;28;20511;-80
2022/10/26 03:37:48;;;;;;;19.02;10.30;;;9.50;99.90;;;;;;5072052;28;20052;-80
2022/10/26 03:40:13;;;;;;;19.27;11.38;;;9.50;99.90;;;;;;5069489;28;20127;-80
2022/10/26 03:42:39;;;;;;;18.13;10.50;;;9.50;99.90;;;;;;5054347;28;20036;-80
2022/10/26 03:45:06;;;;;;;16.83;10.35;;;9.50;99.90;;;;;;5072004;28;20048;-81
2022/10/26 03:47:32;;;;;;;18.80;10.70;;;9.50;99.90;;;;;;5070765;28;20048;-80
2022/10/26 03:49:58;;;;;;;17.20;10.82;;;9.50;99.90;;;;;;5072185;28;20487;-80
2022/10/26 03:52:24;;;;;;;22.45;11.98;;;10.00;99.90;;;;;;5071972;28;20032;-80
2022/10/26 03:54:50;;;;;;;19.95;11.13;;;9.40;99.90;;;;;;5072240;28;20094;-81
2022/10/26 03:57:16;;;;;;;17.67;11.00;;;9.40;99.90;;;;;;5069381;28;20098;-81
2022/10/26 03:59:42;;;;;;;20.00;12.20;;;9.40;99.90;;;;;;5071943;28;20048;-80
2022/10/26 04:02:07;;;;;;;20.55;11.82;;;9.40;99.90;;;;;;5071587;28;20041;-81
2022/10/26 04:04:33;;;;;;;18.15;11.30;;;9.40;99.90;;;;;;5052687;28;20049;-80
2022/10/26 04:06:59;;;;;;;20.77;12.05;;;9.40;99.90;;;;;;5050809;28;20057;-80
2022/10/26 04:09:24;;;;;;;19.65;11.55;;;9.30;99.90;;;;;;5054465;28;20511;-80
2022/10/26 04:11:50;;;;;;;22.13;11.82;;;9.40;99.90;;;;;;5051981;28;20534;-80
2022/10/26 04:14:15;;;;;;;19.33;12.10;;;9.30;99.90;;;;;;5051699;28;20045;-80
2022/10/26 04:16:41;;;;;;;21.65;12.88;;;9.50;99.90;;;;;;5051928;28;20664;-80
2022/10/26 04:19:07;;;;;;;19.25;12.15;;;9.30;99.90;;;;;;5051219;28;20525;-80
2022/10/26 04:21:34;;;;;;;25.45;13.27;;;9.30;99.90;;;;;;5051713;28;20475;-81
2022/10/26 04:24:00;;;;;;;20.75;11.75;;;9.30;99.90;;;;;;5051682;28;20060;-80
2022/10/26 04:26:25;;;;;;;20.65;11.93;;;9.30;99.90;;;;;;5051426;28;20049;-81
2022/10/26 04:28:51;;;;;;;19.77;12.35;;;9.30;99.90;;;;;;5055834;28;20052;-81
2022/10/26 04:31:17;;;;;;;19.20;13.13;;;9.30;99.90;;;;;;5051005;28;20496;-81
2022/10/26 04:33:42;;;;;;;20.55;12.77;;;9.30;99.90;;;;;;5059703;28;20696;-81
2022/10/26 04:36:08;;;;;;;27.42;13.05;;;9.30;99.90;;;;;;5071152;28;20395;-81
2022/10/26 04:38:34;;;;;;;19.83;14.23;;;9.30;99.90;;;;;;5070388;28;20044;-80
2022/10/26 04:40:59;;;;;;;21.63;13.63;;;9.40;99.90;;;;;;5050579;28;20056;-81
2022/10/26 04:43:25;;;;;;;19.73;13.10;;;9.40;99.90;;;;;;5050912;28;20048;-81
2022/10/26 04:45:56;;;;;;;21.60;13.75;;;9.60;99.90;;;;;;5049960;28;20044;-81
2022/10/26 04:48:22;;;;;;;24.85;14.02;;;9.40;99.90;;;;;;5049858;28;20061;-80
2022/10/26 04:50:48;;;;;;;23.02;14.25;;;9.40;99.90;;;;;;5058813;28;20467;-81
2022/10/26 04:53:14;;;;;;;22.55;14.20;;;9.50;99.90;;;;;;5052689;28;20113;-80
2022/10/26 04:55:40;;;;;;;21.83;14.45;;;9.70;99.90;;;;;;5069280;28;20048;-80
2022/10/26 04:58:06;;;;;;;25.80;14.57;;;9.50;99.90;;;;;;5070959;28;20048;-81
2022/10/26 05:00:32;;;;;;;22.40;14.80;;;9.50;99.90;;;;;;5067752;28;20075;-81
2022/10/26 05:03:15;;;;;;;24.40;14.70;;;9.80;99.90;;;;;;5070942;28;20036;-81
2022/10/26 05:05:41;;;;;;;26.65;14.57;;;9.60;99.90;;;;;;5069299;28;20044;-80
2022/10/26 05:08:07;;;;;;;20.63;14.88;;;9.60;99.90;;;;;;5068999;28;20108;-80
2022/10/26 05:10:32;;;;;;;25.90;16.52;;;10.00;99.90;;;;;;5056804;28;20381;-79
2022/10/26 05:12:59;;;;;;;23.73;14.25;;;9.80;99.90;;;;;;5050272;28;20045;-80
2022/10/26 05:15:25;;;;;;;24.75;15.00;;;9.60;99.90;;;;;;5049195;28;20519;-80
2022/10/26 05:18:00;;;;;;;24.23;14.82;;;9.60;99.90;;;;;;5049397;28;20515;-80
2022/10/26 05:20:30;;;;;;;24.40;14.73;;;10.10;99.90;;;;;;5050624;28;20511;-81
2022/10/26 05:23:04;;;;;;;27.58;14.77;;;9.70;99.90;;;;;;5050006;28;20056;-82
2022/10/26 05:25:32;;;;;;;27.88;14.35;;;9.80;99.90;;;;;;5050514;28;20052;-80
2022/10/26 05:28:00;;;;;;;21.20;14.32;;;9.70;99.90;;;;;;5050358;28;20048;-81
2022/10/26 05:30:26;;;;;;;26.52;14.10;;;9.70;99.90;;;;;;5049121;28;20049;-81
2022/10/26 05:32:53;;;;;;;20.58;13.23;;;9.80;99.90;;;;;;5050177;28;20056;-80
2022/10/26 05:35:23;;;;;;;22.60;13.73;;;9.80;99.90;;;;;;5050095;28;20049;-81
2022/10/26 05:37:48;;;;;;;26.52;14.88;;;10.20;99.90;;;;;;5049047;28;20051;-80
2022/10/26 05:40:15;;;;;;;28.02;16.58;;;9.90;99.90;;;;;;5051325;28;20041;-82
2022/10/26 05:42:41;;;;;;;24.15;15.63;;;9.90;99.90;;;;;;5051452;28;20037;-81
2022/10/26 05:45:07;;;;;;;25.60;14.60;;;10.10;99.90;;;;;;5049204;28;20053;-81
2022/10/26 05:47:37;;;;;;;23.20;14.82;;;9.90;99.90;;;;;;5049574;28;20059;-80
2022/10/26 05:50:04;;;;;;;24.15;15.00;;;9.90;99.90;;;;;;5050541;28;20105;-82
2022/10/26 05:52:29;;;;;;;25.88;14.18;;;9.90;99.90;;;;;;5068917;28;20795;-81
2022/10/26 05:54:55;;;;;;;26.52;14.90;;;9.90;99.90;;;;;;5067077;28;20127;-81
2022/10/26 05:57:21;;;;;;;22.35;14.07;;;9.90;99.90;;;;;;5068412;28;20036;-81
2022/10/26 05:59:46;;;;;;;22.02;13.55;;;10.00;99.90;;;;;;5069061;28;20052;-81
2022/10/26 06:02:26;;;;;;;27.67;15.57;;;10.00;99.90;;;;;;5069145;28;20059;-81
2022/10/26 06:04:55;;;;;;;23.50;13.55;;;10.00;99.90;;;;;;5040927;28;20053;-81
2022/10/26 06:07:21;;;;;;;23.58;14.50;;;10.00;99.90;;;;;;5051169;28;20075;-82
2022/10/26 06:09:48;;;;;;;22.38;15.05;;;10.00;99.90;;;;;;5048522;28;20044;-80
2022/10/26 06:12:14;;;;;;;24.70;15.18;;;10.00;99.90;;;;;;5050053;28;20048;-81
2022/10/26 06:14:41;;;;;;;22.25;14.27;;;10.00;99.90;;;;;;5050990;28;20041;-81
2022/10/26 06:17:32;;;;;;;22.38;14.15;;;10.10;99.90;;;;;;5069821;28;20554;-80
2022/10/26 06:20:03;;;;;;;24.80;14.60;;;10.00;99.90;;;;;;5069285;28;20391;-81
2022/10/26 06:22:54;;;;;;;23.10;14.60;;;10.10;99.90;;;;;;5067987;28;20495;-82
2022/10/26 06:25:50;;;;;;;22.75;13.13;;;10.10;99.90;;;;;;5065293;28;20097;-80
2022/10/26 06:28:39;;;;;;;24.48;13.07;;;10.10;99.90;;;;;;5055752;28;20438;-80
2022/10/26 06:31:04;;;;;;;25.42;13.50;;;10.10;99.90;;;;;;5069412;28;20055;-81
2022/10/26 06:33:30;;;;;;;19.45;12.35;;;10.20;99.90;;;;;;5069461;28;20049;-81
2022/10/26 06:36:05;;;;;;;25.27;14.13;;;10.20;99.90;;;;;;5067502;28;20043;-80
2022/10/26 06:38:33;;;;;;;24.17;12.55;;;10.20;99.90;;;;;;5067945;28;20072;-80
2022/10/26 06:41:00;;;;;;;20.15;12.80;;;10.20;99.90;;;;;;5069030;28;20059;-81
2022/10/26 06:43:29;;;;;;;22.30;13.45;;;10.20;99.90;;;;;;5069150;28;20040;-81
2022/10/26 06:45:58;;;;;;;24.67;13.10;;;10.30;99.90;;;;;;5069585;28;20064;-81
2022/10/26 06:48:28;;;;;;;23.98;12.90;;;10.90;99.90;;;;;;5068058;28;20110;-80
2022/10/26 06:50:54;;;;;;;21.95;12.55;;;10.50;99.90;;;;;;5067489;28;20060;-81
2022/10/26 06:53:42;;;;;;;18.25;12.27;;;10.30;99.90;;;;;;5068379;28;20079;-81
2022/10/26 06:56:11;;;;;;;22.90;12.20;;;10.70;99.90;;;;;;5057693;28;20108;-81
2022/10/26 06:58:38;;;;;;;21.08;12.68;;;10.40;99.90;;;;;;5050422;28;20053;-80
2022/10/26 07:01:04;;;;;;;16.08;11.55;;;10.50;99.90;;;;;;5049363;28;20041;-81
2022/10/26 07:03:29;;;;;;;21.05;11.93;;;10.50;99.90;;;;;;5063278;28;20126;-80
2022/10/26 07:05:55;;;;;;;19.27;10.98;;;10.50;99.90;;;;;;5069260;28;20040;-81
2022/10/26 07:08:21;;;;;;;19.83;11.50;;;10.50;99.90;;;;;;5066477;28;20422;-82
2022/10/26 07:10:46;;;;;;;18.52;11.55;;;10.50;99.90;;;;;;5069162;28;20037;-80
2022/10/26 07:13:12;;;;;;;16.73;10.45;;;10.60;99.90;;;;;;5067930;28;20492;-81
2022/10/26 07:15:39;;;;;;;17.77;10.50;;;10.70;99.90;;;;;;5072747;28;20043;-81
2022/10/26 07:18:06;;;;;;;15.27;11.02;;;11.00;99.90;;;;;;5071211;28;20048;-81
2022/10/26 07:20:39;;;;;;;17.42;11.00;;;10.90;99.90;;;;;;5071687;28;20586;-81
2022/10/26 07:23:06;;;;;;;23.38;11.55;;;10.70;99.90;;;;;;5071428;28;20780;-80
2022/10/26 07:25:33;;;;;;;25.45;11.27;;;10.70;99.90;;;;;;5069801;28;20067;-81
2022/10/26 07:27:59;;;;;;;20.17;11.20;;;10.90;99.90;;;;;;5071346;28;20057;-82
2022/10/26 07:30:29;;;;;;;19.88;10.63;;;10.80;99.90;;;;;;5071493;28;20462;-81
2022/10/26 07:33:09;;;;;;;16.50;10.90;;;11.30;99.90;;;;;;5072604;28;20051;-82
2022/10/26 07:35:35;;;;;;;20.95;10.60;;;10.90;99.90;;;;;;5072041;28;20041;-81
2022/10/26 07:38:01;;;;;;;18.13;10.38;;;10.90;99.90;;;;;;5054993;28;20064;-81
2022/10/26 07:40:27;;;;;;;19.15;10.88;;;11.30;99.90;;;;;;5052360;28;20053;-80
2022/10/26 07:42:57;;;;;;;20.08;10.52;;;11.00;99.90;;;;;;5051376;28;20408;-80
2022/10/26 07:45:23;;;;;;;13.43;9.85;;;11.00;99.90;;;;;;5052558;28;20041;-80
2022/10/26 07:47:49;;;;;;;16.35;10.15;;;11.00;99.90;;;;;;5053340;28;20503;-81
2022/10/26 07:50:15;;;;;;;14.13;9.80;;;11.10;99.90;;;;;;5051356;28;20404;-81
2022/10/26 07:52:41;;;;;;;18.55;9.20;;;11.10;99.90;;;;;;5051270;28;20095;-80
2022/10/26 07:55:11;;;;;;;19.02;9.73;;;11.20;99.90;;;;;;5055558;28;20044;-81
2022/10/26 07:57:37;;;;;;;18.25;8.88;;;11.70;99.90;;;;;;5058030;28;20045;-80
2022/10/26 08:00:05;;;;;;;15.00;7.90;;;11.30;99.90;;;;;;5052914;28;20045;-79
2022/10/26 08:02:31;;;;;;;12.65;7.18;;;11.40;99.90;;;;;;5047225;28;20453;-78
2022/10/26 08:04:57;;;;;;;16.08;7.88;;;11.40;99.90;;;;;;5050947;28;20056;-78
2022/10/26 08:07:24;;;;;;;12.98;7.13;;;11.60;99.90;;;;;;5049757;28;20399;-79
2022/10/26 08:09:50;;;;;;;13.00;6.75;;;11.60;99.90;;;;;;5052291;28;20041;-79
2022/10/26 08:12:16;;;;;;;12.43;7.30;;;11.60;99.90;;;;;;5050192;28;20065;-79
2022/10/26 08:14:42;;;;;;;14.82;7.90;;;11.70;99.90;;;;;;5052282;28;20095;-78
2022/10/26 08:17:08;;;;;;;15.20;6.95;;;11.80;99.90;;;;;;5052356;28;20045;-78
2022/10/26 08:19:34;;;;;;;12.63;7.20;;;11.90;99.90;;;;;;5051891;28;20049;-79
2022/10/26 08:21:59;;;;;;;12.00;6.68;;;12.00;99.90;;;;;;5050865;28;20079;-81
2022/10/26 08:24:25;;;;;;;12.98;6.68;;;12.10;99.90;;;;;;5051521;28;20073;-78
2022/10/26 08:26:51;;;;;;;14.48;6.57;;;12.20;99.90;;;;;;5047343;28;20099;-80
2022/10/26 08:29:16;;;;;;;11.45;6.20;;;12.20;99.90;;;;;;5051418;28;20399;-83
2022/10/26 08:31:42;;;;;;;12.57;5.40;;;12.40;99.90;;;;;;5050291;28;20491;-80
2022/10/26 08:34:08;;;;;;;13.13;5.70;;;12.60;99.90;;;;;;5051708;28;20045;-83
2022/10/26 08:36:33;;;;;;;11.70;4.93;;;12.60;99.90;;;;;;5050161;28;20041;-78
2022/10/26 08:38:59;;;;;;;8.57;4.75;;;13.10;99.90;;;;;;5049494;28;20131;-82
2022/10/26 08:41:41;;;;;;;14.10;5.80;;;12.90;99.90;;;;;;5049684;28;20048;-84
2022/10/26 08:44:20;;;;;;;10.82;5.15;;;13.00;99.90;;;;;;5050096;28;20057;-83
2022/10/26 08:46:50;;;;;;;17.58;5.38;;;13.30;99.90;;;;;;5051316;28;20055;-83
2022/10/26 08:49:23;;;;;;;14.18;5.65;;;13.30;99.90;;;;;;5051084;28;20068;-82
2022/10/26 08:51:51;;;;;;;12.52;5.28;;;13.50;99.90;;;;;;5049429;28;20107;-82
2022/10/26 08:54:39;;;;;;;9.15;4.30;;;13.70;99.90;;;;;;5049770;28;20053;-83
2022/10/26 08:57:23;;;;;;;9.25;4.70;;;14.10;99.90;;;;;;5050985;28;20498;-83
2022/10/26 09:00:04;;;;;;;9.23;4.65;;;14.00;99.90;;;;;;5050904;28;20140;-83
2022/10/26 09:02:30;;;;;;;12.13;4.60;;;14.10;99.90;;;;;;5050648;28;20048;-84
2022/10/26 09:04:58;;;;;;;10.77;4.22;;;14.30;99.90;;;;;;5050085;28;20049;-79
2022/10/26 09:07:41;;;;;;;7.20;4.22;;;14.40;99.90;;;;;;5052843;28;20037;-83
2022/10/26 09:10:26;;;;;;;11.63;4.03;;;14.50;99.90;;;;;;5050980;28;20052;-84
2022/10/26 09:13:10;;;;;;;8.18;4.47;;;14.50;99.90;;;;;;5050369;28;20056;-82
2022/10/26 09:15:41;;;;;;;7.93;4.15;;;14.50;99.90;;;;;;5050801;28;20518;-83
2022/10/26 09:18:14;;;;;;;7.20;3.92;;;14.70;99.90;;;;;;5049529;28;20041;-81
2022/10/26 09:20:56;;;;;;;9.48;3.63;;;14.90;99.90;;;;;;5032954;28;20057;-81
2022/10/26 09:23:33;;;;;;;6.63;3.72;;;15.00;99.90;;;;;;5050553;28;20064;-82
2022/10/26 09:26:01;;;;;;;8.75;3.85;;;15.20;99.90;;;;;;5050614;28;20041;-85
2022/10/26 09:28:33;;;;;;;7.78;4.20;;;15.40;99.90;;;;;;5050643;28;20041;-81
2022/10/26 09:31:00;;;;;;;8.75;3.72;;;15.40;99.90;;;;;;5050492;28;20051;-83
2022/10/26 09:33:28;;;;;;;10.05;4.32;;;15.50;99.90;;;;;;5050340;28;20056;-82
2022/10/26 09:36:01;;;;;;;10.73;3.95;;;15.60;99.90;;;;;;5050230;28;20052;-82
2022/10/26 09:38:37;;;;;;;14.23;4.20;;;15.80;99.90;;;;;;5050501;28;20049;-84
2022/10/26 09:41:25;;;;;;;8.98;3.75;;;15.90;99.90;;;;;;5049428;28;20131;-85
2022/10/26 09:44:09;;;;;;;10.40;4.10;;;16.10;99.90;;;;;;5032787;28;20067;-85
2022/10/26 09:47:14;;;;;;;7.75;3.65;;;16.20;99.90;;;;;;5050354;28;20049;-83
2022/10/26 09:49:49;;;;;;;9.00;3.63;;;16.30;99.90;;;;;;5007891;28;20489;-83
2022/10/26 09:52:15;;;;;;;8.02;3.70;;;16.20;99.90;;;;;;4991557;28;20057;-84
2022/10/26 09:54:41;;;;;;;10.60;3.67;;;16.60;99.90;;;;;;5007772;28;20138;-82
2022/10/26 09:57:08;;;;;;;7.60;3.42;;;16.70;99.90;;;;;;4991856;28;20508;-83
2022/10/26 09:59:38;;;;;;;9.80;3.63;;;16.80;99.90;;;;;;5007877;28;20068;-82
2022/10/26 10:02:36;;;;;;;8.40;3.70;;;16.90;99.90;;;;;;4991035;28;20137;-82
2022/10/26 10:05:19;;;;;;;7.03;3.00;;;16.90;99.90;;;;;;5007464;28;20054;-82
2022/10/26 10:07:44;;;;;;;11.88;3.72;;;16.80;99.90;;;;;;5007881;28;20054;-82
2022/10/26 10:10:21;;;;;;;8.90;3.30;;;16.70;99.90;;;;;;5007888;28;20072;-81
2022/10/26 10:12:51;;;;;;;6.82;3.35;;;16.80;99.90;;;;;;4991502;28;20568;-82
2022/10/26 10:15:22;;;;;;;8.07;3.15;;;16.80;99.90;;;;;;4975283;28;20049;-80
2022/10/26 10:17:54;;;;;;;8.77;3.20;;;16.80;99.90;;;;;;4990963;28;20497;-77
2022/10/26 10:20:31;;;;;;;13.15;3.85;;;16.80;99.90;;;;;;4985148;28;20147;-80
2022/10/26 10:23:00;;;;;;;6.05;2.97;;;17.00;99.90;;;;;;5011455;28;20485;-82
2022/10/26 10:25:37;;;;;;;10.27;3.50;;;17.00;99.90;;;;;;5025417;28;20508;-80
2022/10/26 10:28:23;;;;;;;8.38;2.70;;;17.00;99.90;;;;;;5049926;28;20084;-81
2022/10/26 10:31:04;;;;;;;7.60;3.05;;;17.00;99.90;;;;;;5050149;28;20049;-82
2022/10/26 10:33:35;;;;;;;7.18;2.92;;;17.10;99.90;;;;;;5048618;28;20555;-80
2022/10/26 10:36:02;;;;;;;8.52;2.75;;;17.20;99.90;;;;;;5050174;28;20092;-80
2022/10/26 10:38:28;;;;;;;8.38;2.60;;;17.30;99.90;;;;;;5048762;28;20049;-81
2022/10/26 10:40:59;;;;;;;7.97;2.72;;;17.30;99.90;;;;;;5053922;28;20036;-81
2022/10/26 10:43:26;;;;;;;8.45;2.80;;;17.30;99.90;;;;;;5068794;28;20144;-81
2022/10/26 10:45:55;;;;;;;9.05;2.63;;;17.30;99.90;;;;;;5068574;28;20044;-82
2022/10/26 10:48:25;;;;;;;7.88;2.42;;;17.30;99.90;;;;;;5069994;28;20061;-81
2022/10/26 10:50:56;;;;;;;6.85;1.95;;;17.40;99.90;;;;;;5055495;28;20049;-82
2022/10/26 10:53:45;;;;;;;10.35;1.98;;;17.40;99.90;;;;;;5052293;28;20057;-82
2022/10/26 10:56:32;;;;;;;7.07;2.35;;;17.50;99.90;;;;;;5052206;28;20057;-83
2022/10/26 10:59:14;;;;;;;6.15;1.90;;;17.50;99.90;;;;;;5052045;28;20048;-84
2022/10/26 11:01:58;;;;;;;5.43;1.63;;;17.60;99.90;;;;;;5070230;28;20094;-81
2022/10/26 11:04:38;;;;;;;7.70;1.95;;;17.70;99.90;;;;;;5073507;28;20044;-85
2022/10/26 11:07:06;;;;;;;6.57;1.73;;;17.80;99.90;;;;;;5073226;28;20048;-86
2022/10/26 11:09:37;;;;;;;6.32;2.20;;;17.70;99.90;;;;;;5064075;28;20056;-83
2022/10/26 11:12:14;;;;;;;6.15;2.30;;;18.00;99.90;;;;;;5052917;28;20044;-83
2022/10/26 11:14:47;;;;;;;6.53;1.88;;;17.90;99.90;;;;;;5053111;28;20056;-83
2022/10/26 11:17:24;;;;;;;8.68;1.75;;;18.00;99.90;;;;;;5035322;28;20139;-84
2022/10/26 11:19:56;;;;;;;7.38;2.00;;;18.00;99.90;;;;;;5056562;28;20522;-81
2022/10/26 11:22:30;;;;;;;7.75;2.25;;;18.10;99.90;;;;;;5053026;28;20053;-86
2022/10/26 11:24:58;;;;;;;;;;;18.10;99.90;;;;;;5052022;28;20056;-81
2022/10/26 11:27:30;;;;;;;8.40;1.90;;;18.10;99.90;;;;;;5051830;28;19921;-83
2022/10/26 11:30:03;;;;;;;6.07;1.92;;;18.20;99.90;;;;;;5053178;28;20059;-81
2022/10/26 11:32:59;;;;;;;8.00;2.33;;;18.20;99.90;;;;;;5052495;28;20040;-82
2022/10/26 11:35:25;;;;;;;9.32;2.10;;;18.40;99.90;;;;;;5054939;28;20056;-83
2022/10/26 11:38:05;;;;;;;5.53;1.60;;;18.50;99.90;;;;;;5071708;28;20577;-83
2022/10/26 11:40:42;;;;;;;6.38;1.80;;;18.60;99.90;;;;;;5071374;28;20053;-84
2022/10/26 11:43:23;;;;;;;6.57;1.63;;;18.80;99.90;;;;;;5071067;28;20059;-83
2022/10/26 11:46:07;;;;;;;7.18;1.85;;;18.90;99.90;;;;;;5052382;28;20552;-83
2022/10/26 11:48:50;;;;;;;4.55;2.00;;;19.00;99.90;;;;;;5072247;28;20063;-82
2022/10/26 11:51:32;;;;;;;8.23;2.08;;;19.10;99.90;;;;;;5072460;28;20466;-82
2022/10/26 11:54:06;;;;;;;9.88;2.20;;;19.20;99.90;;;;;;5072566;28;20131;-83
2022/10/26 11:56:44;;;;;;;6.43;1.87;;;19.20;99.90;;;;;;5039314;28;20522;-83
2022/10/26 11:59:20;;;;;;;6.82;2.00;;;19.30;99.90;;;;;;5052386;28;20643;-83
2022/10/26 12:01:53;;;;;;;7.88;1.90;;;19.30;99.90;;;;;;5050729;28;20053;-84
2022/10/26 12:04:23;;;;;;;6.85;2.42;;;19.40;99.90;;;;;;5052358;28;20053;-79
2022/10/26 12:06:52;;;;;;;8.68;2.42;;;19.40;99.90;;;;;;5053167;28;20045;-80
2022/10/26 12:09:27;;;;;;;6.95;2.30;;;19.30;99.90;;;;;;5050647;28;20049;-80
2022/10/26 12:12:13;;;;;;;9.07;2.63;;;19.10;99.90;;;;;;5057116;28;20048;-80
2022/10/26 12:14:55;;;;;;;11.07;3.25;;;19.00;99.90;;;;;;5057229;28;20052;-85
2022/10/26 12:17:30;;;;;;;5.72;2.60;;;19.10;99.90;;;;;;5051896;28;20514;-81
2022/10/26 12:20:02;;;;;;;9.75;2.72;;;19.20;99.90;;;;;;5050480;28;20131;-81
2022/10/26 12:22:33;;;;;;;7.68;2.53;;;19.30;99.90;;;;;;5050973;28;20396;-79
2022/10/26 12:25:14;;;;;;;8.35;2.40;;;19.30;99.90;;;;;;5051617;28;20049;-81
2022/10/26 12:27:39;;;;;;;11.55;2.88;;;19.40;99.90;;;;;;5051662;28;20051;-79
2022/10/26 12:30:35;;;;;;;8.38;2.50;;;19.40;99.90;;;;;;5051606;28;20052;-82
2022/10/26 12:33:49;;;;;;;6.15;2.35;;;19.10;99.90;;;;;;5012597;28;20057;-85
2022/10/26 12:36:52;;;;;;;7.10;2.63;;;19.00;99.90;;;;;;4992460;28;20485;-80
2022/10/26 12:39:36;;;;;;;6.07;2.50;;;18.80;99.90;;;;;;5009169;28;20587;-79
2022/10/26 12:42:05;;;;;;;8.60;3.33;;;18.80;99.90;;;;;;5008962;28;20064;-82
2022/10/26 12:45:00;;;;;;;6.85;2.45;;;18.70;99.90;;;;;;5009163;28;20129;-81
2022/10/26 12:47:29;;;;;;;7.22;2.85;;;18.70;99.90;;;;;;4953909;28;20077;-82
2022/10/26 12:50:24;;;;;;;7.90;2.80;;;18.60;99.90;;;;;;4970000;28;20097;-80
2022/10/26 12:52:56;;;;;;;10.90;3.23;;;18.70;99.90;;;;;;4969704;28;20134;-81
2022/10/26 12:55:39;;;;;;;7.40;2.90;;;18.80;99.90;;;;;;4953917;28;20426;-83
2022/10/26 12:58:20;;;;;;;8.95;3.30;;;18.80;99.90;;;;;;4953499;28;20061;-82
2022/10/26 13:00:57;;;;;;;8.60;3.20;;;18.90;99.90;;;;;;4953611;28;20054;-83